首页
METAR-TAF:

METAR-TAF

机场 :

梅赫拉巴德國際機場

德黑兰, 伊朗

纬度: 35-41N, 经度: 051-21E, 海拔: 1204米

当前天气观测

该预报发布于24分钟前的02:00 UTC
风速4节,风向西
温度 24°C
湿度 34%
气压 1010 hPa
能见度10公里或以上
少量云层高于10000英尺

METAR: OIII 230200Z 28004KT 9999 FEW100 24/07 Q1009 A2982

时间: 06:54 (02:24 UTC)

预报

该预报发布于3小时和24分钟前的23:00 UTC
预报有效从23日的 00点(UTC)到 24日的 06点(UTC)
风速8节,风向东南
能见度10公里或以上
1500米以下无云,无积雨云
短暂存在
从 23日的 09点(UTC)到 23日的 15点(UTC)
风速16节,风向

TAF: OIII 222300Z 2300/2406 14004MPS CAVOK TEMPO 2309/2315 17008MPS

超过4000个机场的气象观测和天气预报(METAR&TAF报告)。

可查询的气象台以黄色和红色小点在地图上表示。

将鼠标移到小点上方,可查看气象台名称。

然后点击查看天气观测和预报。

如需切换地图:点击带黑十字的绿色按钮放大地图;点击带横线的绿色按钮缩小地图;或者点击绿色箭头查看邻近地区的地图。


METAR-TAF: